createdAt,value
2022-11-27T00:01:33.053Z,1.95
2022-11-27T00:04:03.443Z,2.10
2022-11-27T00:06:31.030Z,2.00
2022-11-27T00:08:59.362Z,1.58
2022-11-27T00:11:27.681Z,2.03
2022-11-27T00:13:54.534Z,1.55
2022-11-27T00:16:22.519Z,1.67
2022-11-27T00:18:50.910Z,2.03
2022-11-27T00:21:19.639Z,1.88
2022-11-27T00:23:46.173Z,1.50
2022-11-27T00:26:13.057Z,1.67
2022-11-27T00:28:40.171Z,2.07
2022-11-27T00:31:09.170Z,1.88
2022-11-27T00:33:36.078Z,1.85
2022-11-27T00:36:05.307Z,1.67
2022-11-27T00:38:37.357Z,1.67
2022-11-27T00:41:07.423Z,1.70
2022-11-27T00:43:43.529Z,1.55
2022-11-27T00:46:12.002Z,1.83
2022-11-27T00:48:38.969Z,1.85
2022-11-27T00:51:08.927Z,1.88
2022-11-27T00:53:35.841Z,2.03
2022-11-27T00:56:05.989Z,1.80
2022-11-27T00:58:32.898Z,2.08
2022-11-27T01:01:02.665Z,1.70
2022-11-27T01:03:30.521Z,1.98
2022-11-27T01:05:57.124Z,2.07
2022-11-27T01:08:25.519Z,1.77
2022-11-27T01:10:55.104Z,2.00
2022-11-27T01:13:26.667Z,1.80
2022-11-27T01:15:59.618Z,1.35
2022-11-27T01:18:26.625Z,1.73
2022-11-27T01:20:53.848Z,1.65
2022-11-27T01:23:23.576Z,1.52
2022-11-27T01:25:52.262Z,1.63
2022-11-27T01:28:19.348Z,1.60
2022-11-27T01:30:46.159Z,1.50
2022-11-27T01:33:12.805Z,1.58
2022-11-27T01:35:39.902Z,1.85
2022-11-27T01:38:06.619Z,1.90
2022-11-27T01:40:33.435Z,1.90
2022-11-27T01:43:03.905Z,1.93
2022-11-27T01:45:30.791Z,1.40
2022-11-27T01:48:02.516Z,1.70
2022-11-27T01:50:32.827Z,1.80
2022-11-27T01:53:10.015Z,1.98
2022-11-27T01:55:41.609Z,2.00
2022-11-27T01:58:13.930Z,2.22
2022-11-27T02:00:41.163Z,1.80
2022-11-27T02:03:07.962Z,2.28
2022-11-27T02:05:35.776Z,1.77
2022-11-27T02:08:07.198Z,2.17
2022-11-27T02:10:42.179Z,2.33
2022-11-27T02:13:13.676Z,2.28
2022-11-27T02:15:46.817Z,2.05
2022-11-27T02:18:24.973Z,1.88
2022-11-27T02:20:57.091Z,2.17
2022-11-27T02:23:53.914Z,1.92
2022-11-27T02:26:49.857Z,2.22
2022-11-27T02:29:23.905Z,2.42
2022-11-27T02:31:57.660Z,2.50
2022-11-27T02:34:33.328Z,2.17
2022-11-27T02:37:09.770Z,2.45
2022-11-27T02:39:44.395Z,2.45
2022-11-27T02:42:16.969Z,2.35
2022-11-27T02:44:49.470Z,2.30
2022-11-27T02:47:16.195Z,2.27
2022-11-27T02:49:44.255Z,2.25
2022-11-27T02:52:14.268Z,2.60
2022-11-27T02:54:43.563Z,2.63
2022-11-27T02:57:13.139Z,2.38
2022-11-27T02:59:42.947Z,2.83
2022-11-27T03:02:18.995Z,3.05
2022-11-27T03:04:50.098Z,2.85
2022-11-27T03:07:22.736Z,2.85
2022-11-27T03:09:55.401Z,2.70
2022-11-27T03:12:22.564Z,2.93
2022-11-27T03:14:49.744Z,3.00
2022-11-27T03:17:35.299Z,3.22
2022-11-27T03:20:10.677Z,2.55
2022-11-27T03:22:37.456Z,3.10
2022-11-27T03:25:04.831Z,3.43
2022-11-27T03:27:35.846Z,3.17
2022-11-27T03:30:05.920Z,3.30
2022-11-27T03:32:36.151Z,2.70
2022-11-27T03:35:03.536Z,2.92
2022-11-27T03:37:30.379Z,2.90
2022-11-27T03:39:57.874Z,3.20
2022-11-27T03:42:30.427Z,3.35
2022-11-27T03:45:05.543Z,3.00
2022-11-27T03:47:47.105Z,3.15
2022-11-27T03:50:28.590Z,3.20
2022-11-27T03:53:07.422Z,3.08
2022-11-27T03:55:42.918Z,3.40
2022-11-27T03:58:15.980Z,3.60
2022-11-27T04:00:45.666Z,3.45
2022-11-27T04:03:13.682Z,2.93
2022-11-27T04:05:46.641Z,3.42
2022-11-27T04:08:14.712Z,3.03
2022-11-27T04:10:41.572Z,3.25
2022-11-27T04:13:10.393Z,3.35
2022-11-27T04:15:37.224Z,3.43
2022-11-27T04:18:04.114Z,3.35
2022-11-27T04:20:32.248Z,3.40
2022-11-27T04:22:59.431Z,3.67
2022-11-27T04:25:29.249Z,3.22
2022-11-27T04:27:56.299Z,3.30
2022-11-27T04:30:23.998Z,3.50
2022-11-27T04:32:50.530Z,3.65
2022-11-27T04:35:17.614Z,3.38
2022-11-27T04:37:45.734Z,3.90
2022-11-27T04:40:14.147Z,3.90
2022-11-27T04:42:41.381Z,3.55
2022-11-27T04:45:10.037Z,3.95
2022-11-27T04:47:37.316Z,3.50
2022-11-27T04:50:04.738Z,3.30
2022-11-27T04:52:31.436Z,3.93
2022-11-27T04:55:00.425Z,3.80
2022-11-27T04:57:27.403Z,3.30
2022-11-27T04:59:54.391Z,3.33
2022-11-27T05:02:21.257Z,3.38
2022-11-27T05:04:47.908Z,3.20
2022-11-27T05:07:15.997Z,3.28
2022-11-27T05:09:44.816Z,3.42
2022-11-27T05:12:12.983Z,3.33
2022-11-27T05:14:39.999Z,3.67
2022-11-27T05:17:06.977Z,3.90
2022-11-27T05:19:34.449Z,3.58
2022-11-27T05:22:01.404Z,3.72
2022-11-27T05:24:29.030Z,3.28
2022-11-27T05:26:56.860Z,3.00
2022-11-27T05:29:25.593Z,4.13
2022-11-27T05:31:52.885Z,3.70
2022-11-27T05:34:20.976Z,3.72
2022-11-27T05:36:47.669Z,3.30
2022-11-27T05:39:14.727Z,3.80
2022-11-27T05:41:42.849Z,3.80
2022-11-27T05:44:11.310Z,3.70
2022-11-27T05:46:39.864Z,4.80
2022-11-27T05:49:06.639Z,3.20
2022-11-27T05:51:34.346Z,3.45
2022-11-27T05:54:01.252Z,3.20
2022-11-27T05:56:28.264Z,3.63
2022-11-27T05:58:54.880Z,3.47
2022-11-27T06:01:21.867Z,2.95
2022-11-27T06:03:51.225Z,3.78
2022-11-27T06:06:20.145Z,3.33
2022-11-27T06:08:47.591Z,2.75
2022-11-27T06:11:17.499Z,3.80
2022-11-27T06:13:45.373Z,3.33
2022-11-27T06:16:14.209Z,3.13
2022-11-27T06:18:41.070Z,3.43
2022-11-27T06:21:10.395Z,3.50
2022-11-27T06:23:37.378Z,3.30
2022-11-27T06:26:13.182Z,3.38
2022-11-27T06:28:40.174Z,3.40
2022-11-27T06:31:13.117Z,3.30
2022-11-27T06:33:42.856Z,3.47
2022-11-27T06:36:11.079Z,3.53
2022-11-27T06:38:38.650Z,3.63
2022-11-27T06:41:07.250Z,3.40
2022-11-27T06:43:34.401Z,3.27
2022-11-27T06:46:02.079Z,3.22
2022-11-27T06:48:29.834Z,3.30
2022-11-27T06:50:59.628Z,3.28
2022-11-27T06:53:28.250Z,3.65
2022-11-27T06:55:55.245Z,3.37
2022-11-27T06:58:27.776Z,3.40
2022-11-27T07:00:58.818Z,3.30
2022-11-27T07:03:25.878Z,3.40
2022-11-27T07:05:52.688Z,3.08
2022-11-27T07:08:20.791Z,3.20
2022-11-27T07:10:49.310Z,3.55
2022-11-27T07:13:16.207Z,3.80
2022-11-27T07:15:42.820Z,3.40
2022-11-27T07:18:09.934Z,3.20
2022-11-27T07:20:37.393Z,3.40
2022-11-27T07:23:04.025Z,3.50
2022-11-27T07:25:30.745Z,3.20
2022-11-27T07:27:58.937Z,2.92
2022-11-27T07:30:25.747Z,3.00
2022-11-27T07:32:52.493Z,2.90
2022-11-27T07:35:19.585Z,2.85
2022-11-27T07:37:46.231Z,2.97
2022-11-27T07:40:14.927Z,2.95
2022-11-27T07:42:42.878Z,2.78
2022-11-27T07:45:11.583Z,2.73
2022-11-27T07:47:39.340Z,3.05
2022-11-27T07:50:08.037Z,2.60
2022-11-27T07:52:41.447Z,2.83
2022-11-27T07:55:09.950Z,2.53
2022-11-27T07:57:37.035Z,3.30
2022-11-27T08:00:04.638Z,2.38
2022-11-27T08:02:33.194Z,2.40
2022-11-27T08:05:00.094Z,2.53
2022-11-27T08:07:27.428Z,2.20
2022-11-27T08:09:54.321Z,2.40
2022-11-27T08:12:22.731Z,2.15
2022-11-27T08:14:49.280Z,2.30
2022-11-27T08:17:16.214Z,2.42
2022-11-27T08:19:44.300Z,2.20
2022-11-27T08:22:13.393Z,2.57
2022-11-27T08:24:40.223Z,2.10
2022-11-27T08:27:08.053Z,2.28
2022-11-27T08:29:35.317Z,2.25
2022-11-27T08:32:01.996Z,2.25
2022-11-27T08:34:28.733Z,2.30
2022-11-27T08:36:58.852Z,2.20
2022-11-27T08:39:27.983Z,1.90
2022-11-27T08:41:59.555Z,2.00
2022-11-27T08:44:27.197Z,2.10
2022-11-27T08:46:54.136Z,1.97
2022-11-27T08:49:21.573Z,2.10
2022-11-27T08:51:58.395Z,2.45
2022-11-27T08:54:27.278Z,2.10
2022-11-27T08:56:54.490Z,1.90
2022-11-27T08:59:21.156Z,1.83
2022-11-27T09:01:47.718Z,2.00
2022-11-27T09:04:15.047Z,1.90
2022-11-27T09:06:41.831Z,1.80
2022-11-27T09:09:08.992Z,2.15
2022-11-27T09:11:38.213Z,2.33
2022-11-27T09:14:07.244Z,2.28
2022-11-27T09:16:34.483Z,2.63
2022-11-27T09:19:02.829Z,2.40
2022-11-27T09:21:35.195Z,2.25
2022-11-27T09:24:12.747Z,2.33
2022-11-27T09:26:42.812Z,2.65
2022-11-27T09:29:09.353Z,2.17
2022-11-27T09:31:35.934Z,2.30
2022-11-27T09:34:04.696Z,2.28
2022-11-27T09:36:31.212Z,2.37
2022-11-27T09:38:58.841Z,2.70
2022-11-27T09:41:43.879Z,2.50
2022-11-27T09:44:31.579Z,2.60
2022-11-27T09:47:13.050Z,2.50
2022-11-27T09:49:44.132Z,2.07
2022-11-27T09:52:15.609Z,2.60
2022-11-27T09:54:52.435Z,2.50
2022-11-27T09:57:28.284Z,2.75
2022-11-27T09:59:58.810Z,2.80
2022-11-27T10:02:29.383Z,2.30
2022-11-27T10:05:13.300Z,2.33
2022-11-27T10:07:54.225Z,2.63
2022-11-27T10:10:39.228Z,2.80
2022-11-27T10:13:18.685Z,2.55
2022-11-27T10:15:54.374Z,2.40
2022-11-27T10:18:29.756Z,2.33
2022-11-27T10:21:02.161Z,2.90
2022-11-27T10:23:38.894Z,2.45
2022-11-27T10:26:17.210Z,2.40
2022-11-27T10:28:53.220Z,2.70
2022-11-27T10:31:27.692Z,2.88
2022-11-27T10:33:58.701Z,2.80
2022-11-27T10:36:28.849Z,2.67
2022-11-27T10:38:57.838Z,2.63
2022-11-27T10:45:43.038Z,2.45
2022-11-27T10:49:00.857Z,2.92
2022-11-27T11:24:48.921Z,2.65
2022-11-27T11:28:59.629Z,2.22
2022-11-27T11:50:01.819Z,2.13
2022-11-27T11:52:47.693Z,2.30
2022-11-27T11:55:20.242Z,2.40
2022-11-27T11:58:03.326Z,2.00
2022-11-27T12:00:58.586Z,2.03
2022-11-27T12:03:56.627Z,2.10
2022-11-27T12:06:37.402Z,2.00
2022-11-27T12:09:27.645Z,2.17
2022-11-27T12:12:07.836Z,1.95
2022-11-27T12:14:44.038Z,2.20
2022-11-27T12:17:31.589Z,1.90
2022-11-27T12:20:19.779Z,2.15
2022-11-27T12:26:12.967Z,1.88
2022-11-27T12:29:04.716Z,2.00
2022-11-27T12:32:06.757Z,1.80
2022-11-27T12:34:55.429Z,1.88
2022-11-27T12:40:57.768Z,1.75
2022-11-27T12:43:55.583Z,1.90
2022-11-27T12:46:40.115Z,2.10
2022-11-27T12:49:54.856Z,1.83
2022-11-27T12:53:13.843Z,1.67
2022-11-27T12:56:10.033Z,1.70
2022-11-27T12:58:55.672Z,1.95
2022-11-27T13:01:43.024Z,1.58
2022-11-27T13:04:46.153Z,1.63
2022-11-27T13:07:42.745Z,1.60
2022-11-27T13:17:12.140Z,1.45
2022-11-27T13:26:38.559Z,1.88
2022-11-27T13:29:47.268Z,1.63
2022-11-27T13:35:24.952Z,1.75
2022-11-27T13:38:04.938Z,1.93
2022-11-27T13:40:40.882Z,1.80
2022-11-27T13:43:47.197Z,1.83
2022-11-27T13:46:32.765Z,1.58
2022-11-27T13:49:24.654Z,2.00
2022-11-27T13:52:05.711Z,1.70
2022-11-27T13:54:33.649Z,1.52
2022-11-27T14:00:43.742Z,1.50
2022-11-27T14:07:42.655Z,1.77
2022-11-27T14:29:34.934Z,1.60
2022-11-27T14:32:13.448Z,1.92
2022-11-27T15:05:58.331Z,2.00
2022-11-27T15:09:44.040Z,1.67
2022-11-27T15:12:04.356Z,1.90
2022-11-27T15:17:49.489Z,1.67
2022-11-27T15:23:57.637Z,1.70
2022-11-27T15:27:31.919Z,1.83
2022-11-27T16:45:06.804Z,2.13
2022-11-27T16:47:58.660Z,1.80
2022-11-27T16:50:28.663Z,1.60
2022-11-27T16:55:46.288Z,2.10
2022-11-27T17:01:53.170Z,1.90
2022-11-27T17:07:36.510Z,1.90
2022-11-27T17:10:16.026Z,1.90
2022-11-27T17:12:45.942Z,1.90
2022-11-27T17:22:27.061Z,1.95
2022-11-27T17:25:01.189Z,1.80
2022-11-27T17:27:41.364Z,1.77
2022-11-27T17:41:41.898Z,1.75
2022-11-27T17:44:39.473Z,1.50
2022-11-27T17:50:07.074Z,1.85
2022-11-27T17:53:31.862Z,1.90
2022-11-27T17:56:34.483Z,1.90
2022-11-27T17:59:14.541Z,1.80
2022-11-27T18:02:57.756Z,1.77
2022-11-27T18:05:51.526Z,2.03
2022-11-27T18:08:47.330Z,1.83
2022-11-27T18:11:29.351Z,1.80
2022-11-27T18:14:42.506Z,2.20
2022-11-27T18:17:32.517Z,2.00
2022-11-27T18:20:19.446Z,1.90
2022-11-27T18:23:07.836Z,2.00
2022-11-27T18:25:48.872Z,2.00
2022-11-27T18:28:49.651Z,1.98
2022-11-27T18:34:11.981Z,1.97
2022-11-27T18:35:05.965Z,2.00
2022-11-27T18:37:34.844Z,1.83
2022-11-27T18:40:03.163Z,1.67
2022-11-27T18:42:32.219Z,1.92
2022-11-27T18:45:04.080Z,1.90
2022-11-27T18:47:52.867Z,2.00
2022-11-27T18:50:37.518Z,2.00
2022-11-27T18:53:06.148Z,2.15
2022-11-27T18:55:34.799Z,1.80
2022-11-27T18:58:03.502Z,2.13
2022-11-27T19:00:34.338Z,1.83
2022-11-27T19:05:46.179Z,2.10
2022-11-27T19:08:17.072Z,1.73
2022-11-27T19:10:44.800Z,1.63
2022-11-27T19:13:21.522Z,1.85
2022-11-27T19:15:51.822Z,1.70
2022-11-27T19:18:32.722Z,1.70
2022-11-27T19:21:08.963Z,1.80
2022-11-27T19:23:46.109Z,2.30
2022-11-27T19:26:14.804Z,2.10
2022-11-27T19:28:42.298Z,2.08
2022-11-27T19:31:13.651Z,2.35
2022-11-27T19:33:41.798Z,2.10
2022-11-27T19:36:13.615Z,2.13
2022-11-27T19:38:41.961Z,2.10
2022-11-27T19:41:19.353Z,1.80
2022-11-27T19:43:50.661Z,2.13
2022-11-27T19:46:21.130Z,2.13
2022-11-27T19:48:54.885Z,1.90
2022-11-27T19:51:26.144Z,2.00
2022-11-27T19:53:55.428Z,2.30
2022-11-27T19:56:30.855Z,1.70
2022-11-27T19:59:03.502Z,1.80
2022-11-27T20:01:30.978Z,1.87
2022-11-27T20:04:01.885Z,1.90
2022-11-27T20:06:31.527Z,1.73
2022-11-27T20:09:00.395Z,2.10
2022-11-27T20:11:34.881Z,2.20
2022-11-27T20:14:03.746Z,2.10
2022-11-27T20:16:32.895Z,2.00
2022-11-27T20:19:04.009Z,2.10
2022-11-27T20:21:35.463Z,1.98
2022-11-27T20:24:02.834Z,2.20
2022-11-27T20:26:36.148Z,1.80
2022-11-27T20:29:08.672Z,2.10
2022-11-27T20:31:37.553Z,2.05
2022-11-27T20:34:09.252Z,1.98
2022-11-27T20:36:41.028Z,2.40
2022-11-27T20:39:09.227Z,2.27
2022-11-27T20:41:38.047Z,2.05
2022-11-27T20:44:08.292Z,2.90
2022-11-27T20:46:41.202Z,2.00
2022-11-27T20:49:09.367Z,2.00
2022-11-27T20:51:39.169Z,2.40
2022-11-27T20:54:07.273Z,2.33
2022-11-27T20:56:43.499Z,2.28
2022-11-27T20:59:15.195Z,2.42
2022-11-27T21:01:55.214Z,2.30
2022-11-27T21:04:24.514Z,2.17
2022-11-27T21:06:54.534Z,2.30
2022-11-27T21:09:33.196Z,2.38
2022-11-27T21:12:11.564Z,2.33
2022-11-27T21:14:55.387Z,2.53
2022-11-27T21:17:35.223Z,2.20
2022-11-27T21:20:07.856Z,2.45
2022-11-27T21:22:38.604Z,2.50
2022-11-27T21:25:24.106Z,2.60
2022-11-27T21:28:07.267Z,2.83
2022-11-27T21:30:43.925Z,2.43
2022-11-27T21:33:17.548Z,2.47
2022-11-27T21:36:04.652Z,2.90
2022-11-27T21:38:34.902Z,2.60
2022-11-27T21:41:04.359Z,2.83
2022-11-27T21:49:25.643Z,2.75
2022-11-27T21:51:58.500Z,2.70
2022-11-27T21:54:41.883Z,2.60
2022-11-27T21:57:19.722Z,2.50
2022-11-27T21:59:52.280Z,2.63
2022-11-27T22:02:29.248Z,2.30
2022-11-27T22:05:01.966Z,2.35
2022-11-27T22:07:32.262Z,2.70
2022-11-27T22:13:36.538Z,2.67
2022-11-27T22:16:16.728Z,2.65
2022-11-27T22:18:49.684Z,2.40
2022-11-27T22:21:23.106Z,2.70
2022-11-27T22:23:59.521Z,2.50
2022-11-27T22:26:34.378Z,2.10
2022-11-27T22:29:06.582Z,2.50
2022-11-27T22:31:56.446Z,2.47
2022-11-27T22:34:37.825Z,2.60
2022-11-27T22:37:13.764Z,2.40
2022-11-27T22:39:46.257Z,2.22
2022-11-27T22:42:27.561Z,2.53
2022-11-27T22:45:14.485Z,2.70
2022-11-27T22:47:43.818Z,2.67
2022-11-27T22:50:22.518Z,2.80
2022-11-27T22:52:53.570Z,2.95
2022-11-27T22:55:25.432Z,2.88
2022-11-27T22:57:58.250Z,2.70
2022-11-27T23:00:29.278Z,2.85
2022-11-27T23:02:58.231Z,2.80
2022-11-27T23:05:26.161Z,2.67
2022-11-27T23:07:52.995Z,3.13
2022-11-27T23:10:21.808Z,2.63
2022-11-27T23:12:48.790Z,2.92
2022-11-27T23:15:16.337Z,2.93
2022-11-27T23:17:44.738Z,3.08
2022-11-27T23:20:13.027Z,2.90
2022-11-27T23:22:40.114Z,2.70
2022-11-27T23:25:09.288Z,2.90
2022-11-27T23:27:36.628Z,3.10
2022-11-27T23:30:04.221Z,2.83
2022-11-27T23:32:31.787Z,2.85
2022-11-27T23:35:02.245Z,2.75
2022-11-27T23:37:32.641Z,3.13
2022-11-27T23:40:00.221Z,2.63
2022-11-27T23:42:30.374Z,2.80
2022-11-27T23:45:03.425Z,3.20
2022-11-27T23:47:35.055Z,2.88
2022-11-27T23:50:03.605Z,2.95
2022-11-27T23:52:30.455Z,2.60
2022-11-27T23:54:57.433Z,3.00
2022-11-27T23:57:25.926Z,2.65
2022-11-27T23:59:53.159Z,3.10
